Otog Qi, China
Current Conditions -  °F | °C
As of 10:00 AM on Monday 22 Dec 2014 (Local Time) from ZBHH Reporting Station
Clear Clear  
Wind Chill:   Ceiling: Unl
Heat Index: 16°   Visibility: 6mi
Dew Point:   Wind: 4mph
Humidity: 58%   Direction: 100°E
Pressure: 30.27"   Gusts: NA
Location:  39.1°N, 107.98°E
Report Text: ZBHH 220200Z 10002MPS CAVOK M09/M16 Q1025 NOSIG
Loading
Personal Weather Stations






























Interactive Weather Map New forecast layout! Learn more

10-Day Weather Forecast

Advertisements
Track Severe Weather on mobile